createdAt,value
2023-03-23T00:01:21.906Z,13.85
2023-03-23T00:03:54.461Z,11.52
2023-03-23T00:06:22.121Z,8.97
2023-03-23T00:08:54.280Z,10.27
2023-03-23T00:11:30.157Z,9.88
2023-03-23T00:14:02.156Z,8.90
2023-03-23T00:16:33.518Z,9.77
2023-03-23T00:19:03.721Z,7.97
2023-03-23T00:21:36.282Z,7.68
2023-03-23T00:24:07.304Z,10.00
2023-03-23T00:26:47.827Z,8.90
2023-03-23T00:29:22.406Z,7.15
2023-03-23T00:31:52.211Z,8.67
2023-03-23T00:34:22.032Z,8.23
2023-03-23T00:37:03.315Z,7.03
2023-03-23T00:39:30.797Z,8.27
2023-03-23T00:42:01.957Z,8.45
2023-03-23T00:44:31.547Z,7.80
2023-03-23T00:46:59.076Z,7.88
2023-03-23T00:49:27.549Z,9.82
2023-03-23T00:51:57.134Z,8.25
2023-03-23T00:54:26.245Z,8.70
2023-03-23T00:56:53.438Z,8.30
2023-03-23T00:59:21.500Z,7.38
2023-03-23T01:01:49.823Z,6.45
2023-03-23T01:04:17.531Z,7.65
2023-03-23T01:06:45.789Z,5.95
2023-03-23T01:09:18.615Z,5.93
2023-03-23T01:11:46.394Z,6.25
2023-03-23T01:14:15.850Z,6.25
2023-03-23T01:16:42.999Z,6.78
2023-03-23T01:19:10.604Z,7.18
2023-03-23T01:21:37.954Z,6.93
2023-03-23T01:24:05.517Z,7.10
2023-03-23T01:26:32.558Z,6.20
2023-03-23T01:28:59.803Z,7.18
2023-03-23T01:31:27.560Z,6.00
2023-03-23T01:33:56.609Z,6.70
2023-03-23T01:38:56.210Z,8.52
2023-03-23T01:41:24.708Z,9.75
2023-03-23T01:44:05.264Z,8.05
2023-03-23T01:46:45.292Z,10.33
2023-03-23T01:49:18.286Z,7.85
2023-03-23T01:51:57.446Z,6.05
2023-03-23T01:54:26.155Z,6.30
2023-03-23T01:57:00.234Z,6.82
2023-03-23T01:59:31.512Z,5.43
2023-03-23T02:02:16.332Z,5.95
2023-03-23T02:04:44.294Z,5.45
2023-03-23T02:07:12.855Z,5.72
2023-03-23T02:09:40.367Z,5.22
2023-03-23T02:12:07.464Z,5.10
2023-03-23T02:14:36.789Z,6.50
2023-03-23T02:17:19.240Z,8.27
2023-03-23T02:19:55.451Z,7.53
2023-03-23T02:22:52.104Z,7.78
2023-03-23T02:25:37.063Z,6.90
2023-03-23T02:28:13.577Z,8.50
2023-03-23T02:30:54.127Z,7.43
2023-03-23T02:33:33.147Z,8.15
2023-03-23T02:36:11.613Z,7.25
2023-03-23T02:38:57.529Z,6.77
2023-03-23T02:41:31.961Z,7.30
2023-03-23T02:44:00.200Z,7.97
2023-03-23T02:46:27.860Z,12.30
2023-03-23T02:48:57.441Z,14.27
2023-03-23T02:51:26.848Z,8.87
2023-03-23T02:53:57.256Z,9.15
2023-03-23T02:56:29.218Z,12.43
2023-03-23T02:58:57.446Z,10.50
2023-03-23T03:01:29.755Z,13.32
2023-03-23T03:04:01.904Z,9.90
2023-03-23T03:06:49.776Z,7.57
2023-03-23T03:09:26.122Z,6.90
2023-03-23T03:12:00.441Z,7.88
2023-03-23T03:14:35.542Z,8.18
2023-03-23T03:17:26.323Z,7.77
2023-03-23T03:19:58.821Z,7.15
2023-03-23T03:22:29.871Z,7.35
2023-03-23T03:24:59.669Z,9.65
2023-03-23T03:27:50.450Z,9.20
2023-03-23T03:30:29.097Z,7.60
2023-03-23T03:32:56.719Z,7.75
2023-03-23T03:35:25.408Z,7.68
2023-03-23T03:37:53.402Z,7.45
2023-03-23T03:40:23.042Z,5.95
2023-03-23T03:42:51.248Z,7.53
2023-03-23T03:45:20.680Z,13.40
2023-03-23T03:47:48.181Z,7.50
2023-03-23T03:50:17.741Z,7.45
2023-03-23T03:52:45.031Z,7.03
2023-03-23T03:55:12.370Z,7.37
2023-03-23T03:57:42.771Z,5.97
2023-03-23T04:00:29.223Z,6.30
2023-03-23T04:02:56.984Z,6.45
2023-03-23T04:05:41.670Z,6.80
2023-03-23T04:08:09.810Z,6.80
2023-03-23T04:10:37.027Z,7.25
2023-03-23T04:13:05.830Z,7.18
2023-03-23T04:16:07.329Z,7.00
2023-03-23T04:18:39.530Z,6.82
2023-03-23T04:21:09.234Z,7.10
2023-03-23T04:23:37.332Z,7.20
2023-03-23T04:26:05.426Z,7.28
2023-03-23T04:28:39.853Z,7.55
2023-03-23T04:31:25.628Z,8.38
2023-03-23T04:34:02.660Z,9.30
2023-03-23T04:36:56.550Z,10.65
2023-03-23T04:39:30.301Z,10.68
2023-03-23T04:42:02.219Z,9.82
2023-03-23T04:45:03.645Z,10.73
2023-03-23T04:47:41.337Z,8.93
2023-03-23T04:50:19.954Z,7.80
2023-03-23T04:52:49.157Z,7.43
2023-03-23T04:55:16.674Z,9.30
2023-03-23T04:57:49.320Z,7.68
2023-03-23T05:00:35.778Z,7.97
2023-03-23T05:03:04.409Z,8.43
2023-03-23T05:05:35.618Z,7.53
2023-03-23T05:08:07.126Z,8.07
2023-03-23T05:10:37.899Z,8.15
2023-03-23T05:13:09.599Z,8.87
2023-03-23T05:15:37.113Z,8.45
2023-03-23T05:18:10.674Z,7.05
2023-03-23T05:20:38.505Z,9.02
2023-03-23T05:23:11.290Z,7.50
2023-03-23T05:25:43.238Z,10.60
2023-03-23T05:28:15.751Z,9.95
2023-03-23T05:30:53.400Z,7.22
2023-03-23T05:33:21.614Z,6.72
2023-03-23T05:36:14.638Z,8.00
2023-03-23T05:39:12.588Z,8.75
2023-03-23T05:41:58.243Z,6.43
2023-03-23T05:44:28.091Z,6.85
2023-03-23T05:47:01.843Z,7.85
2023-03-23T05:49:28.857Z,6.47
2023-03-23T05:51:56.200Z,6.93
2023-03-23T05:54:23.158Z,7.27
2023-03-23T05:56:51.266Z,6.93
2023-03-23T05:59:26.331Z,7.30
2023-03-23T06:01:58.515Z,7.18
2023-03-23T06:04:28.275Z,7.68
2023-03-23T06:07:09.066Z,8.70
2023-03-23T06:09:36.167Z,12.43
2023-03-23T06:12:21.551Z,14.60
2023-03-23T06:15:08.768Z,10.70
2023-03-23T06:18:15.099Z,9.75
2023-03-23T06:21:01.470Z,9.90
2023-03-23T06:23:49.297Z,15.68
2023-03-23T06:26:19.884Z,11.13
2023-03-23T06:28:52.108Z,9.82
2023-03-23T06:31:21.517Z,8.43
2023-03-23T06:33:50.439Z,9.23
2023-03-23T06:36:28.115Z,10.32
2023-03-23T06:39:08.476Z,11.15
2023-03-23T06:41:53.720Z,9.57
2023-03-23T06:44:21.121Z,8.68
2023-03-23T06:46:49.672Z,8.73
2023-03-23T06:49:21.181Z,13.38
2023-03-23T06:51:53.609Z,10.30
2023-03-23T06:54:21.070Z,12.57
2023-03-23T06:56:48.331Z,9.45
2023-03-23T06:59:15.734Z,10.63
2023-03-23T07:01:42.950Z,10.27
2023-03-23T07:04:10.264Z,8.90
2023-03-23T07:06:46.532Z,10.93
2023-03-23T07:09:14.284Z,9.57
2023-03-23T07:11:42.636Z,10.93
2023-03-23T07:14:20.698Z,10.80
2023-03-23T07:16:47.667Z,10.45
2023-03-23T07:19:15.124Z,9.65
2023-03-23T07:21:43.165Z,10.10
2023-03-23T07:24:16.903Z,11.03
2023-03-23T07:26:57.349Z,15.48
2023-03-23T07:29:24.912Z,12.48
2023-03-23T07:32:02.666Z,14.07
2023-03-23T07:34:30.346Z,14.85
2023-03-23T07:37:09.738Z,11.33
2023-03-23T07:39:38.678Z,8.13
2023-03-23T07:42:05.649Z,8.80
2023-03-23T07:44:43.309Z,10.80
2023-03-23T07:47:13.582Z,7.85
2023-03-23T07:49:42.018Z,8.40
2023-03-23T07:52:42.488Z,9.57
2023-03-23T07:55:18.503Z,9.25
2023-03-23T07:57:54.967Z,11.15
2023-03-23T08:00:25.406Z,8.63
2023-03-23T08:03:00.366Z,8.60
2023-03-23T08:05:30.470Z,8.43
2023-03-23T08:08:24.508Z,9.70
2023-03-23T08:11:16.528Z,8.18
2023-03-23T08:13:56.109Z,9.18
2023-03-23T08:16:57.204Z,9.40
2023-03-23T08:19:53.801Z,10.70
2023-03-23T08:22:44.768Z,10.00
2023-03-23T08:25:42.844Z,9.30
2023-03-23T08:28:33.122Z,7.90
2023-03-23T08:31:20.006Z,8.43
2023-03-23T08:33:58.858Z,8.15
2023-03-23T08:36:54.269Z,8.52
2023-03-23T08:39:40.231Z,10.73
2023-03-23T08:42:30.459Z,8.52
2023-03-23T08:45:13.539Z,9.20
2023-03-23T08:47:43.972Z,11.30
2023-03-23T08:50:22.660Z,9.95
2023-03-23T08:53:14.802Z,13.30
2023-03-23T08:55:57.351Z,8.52
2023-03-23T08:58:39.388Z,13.40
2023-03-23T09:01:29.522Z,12.82
2023-03-23T09:04:16.607Z,9.43
2023-03-23T09:06:59.385Z,9.73
2023-03-23T09:09:26.395Z,8.77
2023-03-23T09:11:54.882Z,10.33
2023-03-23T09:14:21.908Z,9.23
2023-03-23T09:16:49.144Z,12.23
2023-03-23T09:19:16.827Z,7.38
2023-03-23T09:21:44.062Z,9.02
2023-03-23T09:24:11.600Z,9.30
2023-03-23T09:26:38.886Z,6.85
2023-03-23T09:29:05.831Z,9.00
2023-03-23T09:31:33.158Z,7.68
2023-03-23T09:34:00.592Z,6.60
2023-03-23T09:36:30.530Z,6.07
2023-03-23T09:38:58.619Z,10.10
2023-03-23T09:41:45.625Z,6.70
2023-03-23T09:44:19.853Z,8.10
2023-03-23T09:47:04.584Z,8.27
2023-03-23T09:49:46.407Z,5.87
2023-03-23T09:52:18.786Z,7.60
2023-03-23T09:54:51.835Z,6.88
2023-03-23T09:57:31.370Z,6.75
2023-03-23T10:00:07.279Z,7.22
2023-03-23T10:02:51.556Z,8.37
2023-03-23T10:05:40.679Z,7.90
2023-03-23T10:08:14.634Z,8.18
2023-03-23T10:10:53.838Z,7.22
2023-03-23T10:13:29.457Z,7.88
2023-03-23T10:15:57.029Z,8.47
2023-03-23T10:18:37.652Z,8.23
2023-03-23T10:21:05.345Z,5.97
2023-03-23T10:23:54.541Z,6.85
2023-03-23T10:26:27.368Z,8.85
2023-03-23T10:29:05.804Z,8.80
2023-03-23T10:31:38.466Z,8.60
2023-03-23T10:34:29.636Z,5.82
2023-03-23T10:37:09.924Z,9.70
2023-03-23T10:39:49.707Z,7.07
2023-03-23T10:42:34.875Z,7.07
2023-03-23T10:45:11.807Z,8.27
2023-03-23T10:47:41.480Z,8.15
2023-03-23T10:50:15.266Z,6.82
2023-03-23T10:52:45.948Z,5.28
2023-03-23T10:55:19.166Z,6.87
2023-03-23T10:58:02.267Z,6.05
2023-03-23T11:00:30.891Z,6.55
2023-03-23T11:03:06.949Z,6.95
2023-03-23T11:05:44.943Z,6.55
2023-03-23T11:08:17.780Z,7.27
2023-03-23T11:10:56.523Z,7.60
2023-03-23T11:13:30.551Z,5.90
2023-03-23T11:15:58.194Z,5.65
2023-03-23T11:18:45.196Z,7.18
2023-03-23T11:21:14.842Z,5.33
2023-03-23T11:23:44.044Z,7.03
2023-03-23T11:26:28.731Z,9.15
2023-03-23T11:29:22.229Z,10.68
2023-03-23T11:32:02.368Z,8.25
2023-03-23T11:34:37.779Z,7.77
2023-03-23T11:37:18.270Z,7.32
2023-03-23T11:39:56.022Z,5.20
2023-03-23T11:42:29.370Z,6.97
2023-03-23T11:45:14.571Z,8.38
2023-03-23T11:47:50.835Z,5.60
2023-03-23T11:50:45.248Z,8.88
2023-03-23T11:53:44.860Z,7.20
2023-03-23T11:56:24.205Z,6.38
2023-03-23T11:58:52.138Z,6.18
2023-03-23T12:01:25.631Z,8.27
2023-03-23T12:04:11.051Z,10.23
2023-03-23T12:07:02.270Z,6.88
2023-03-23T12:09:41.710Z,6.03
2023-03-23T12:12:18.974Z,8.85
2023-03-23T12:15:16.225Z,9.93
2023-03-23T12:17:55.136Z,8.02
2023-03-23T12:20:37.742Z,9.57
2023-03-23T12:23:23.672Z,10.32
2023-03-23T12:26:14.967Z,9.25
2023-03-23T12:28:54.209Z,7.40
2023-03-23T12:31:26.779Z,9.85
2023-03-23T12:34:09.085Z,7.57
2023-03-23T12:36:58.573Z,5.85
2023-03-23T12:39:50.227Z,5.75
2023-03-23T12:42:44.782Z,9.93
2023-03-23T12:45:11.964Z,6.50
2023-03-23T12:47:46.891Z,6.68
2023-03-23T12:50:40.750Z,7.80
2023-03-23T12:53:14.384Z,8.65
2023-03-23T12:55:55.470Z,6.00
2023-03-23T12:58:30.153Z,13.27
2023-03-23T13:01:00.093Z,9.70
2023-03-23T13:03:44.048Z,10.55
2023-03-23T13:06:16.895Z,11.35
2023-03-23T13:08:54.435Z,10.93
2023-03-23T13:11:34.356Z,4.30
2023-03-23T13:14:26.896Z,4.75
2023-03-23T13:17:07.210Z,3.72
2023-03-23T13:19:52.710Z,4.50
2023-03-23T13:22:28.705Z,5.07
2023-03-23T13:25:00.852Z,5.07
2023-03-23T13:27:30.856Z,7.57
2023-03-23T13:30:03.261Z,6.72
2023-03-23T13:32:43.626Z,5.97
2023-03-23T13:35:18.329Z,6.33
2023-03-23T13:37:51.078Z,4.78
2023-03-23T13:40:30.837Z,5.15
2023-03-23T13:43:00.202Z,9.18
2023-03-23T13:45:34.811Z,6.18
2023-03-23T13:48:13.955Z,4.60
2023-03-23T13:50:56.576Z,4.25
2023-03-23T13:53:49.538Z,5.95
2023-03-23T13:56:18.512Z,4.20
2023-03-23T13:58:53.159Z,5.78
2023-03-23T14:01:33.702Z,4.57
2023-03-23T14:04:02.104Z,4.65
2023-03-23T14:06:35.549Z,5.05
2023-03-23T14:09:29.810Z,5.93
2023-03-23T14:12:09.999Z,6.13
2023-03-23T14:14:44.221Z,5.33
2023-03-23T14:17:26.241Z,5.53
2023-03-23T14:20:00.213Z,5.18
2023-03-23T14:22:41.858Z,5.38
2023-03-23T14:25:17.860Z,4.80
2023-03-23T14:27:46.979Z,5.27
2023-03-23T14:30:26.091Z,4.78
2023-03-23T14:32:54.946Z,6.00
2023-03-23T14:35:31.546Z,5.95
2023-03-23T14:37:59.526Z,6.85
2023-03-23T14:40:31.049Z,9.90
2023-03-23T14:42:59.063Z,7.10
2023-03-23T14:45:27.314Z,5.97
2023-03-23T14:47:59.640Z,5.32
2023-03-23T14:50:29.948Z,10.30
2023-03-23T14:53:00.435Z,5.63
2023-03-23T14:55:29.885Z,7.07
2023-03-23T14:57:57.466Z,5.93
2023-03-23T15:00:31.134Z,8.13
2023-03-23T15:03:01.158Z,7.03
2023-03-23T15:05:42.763Z,5.93
2023-03-23T15:08:17.090Z,6.75
2023-03-23T15:10:53.844Z,6.47
2023-03-23T15:13:21.270Z,5.65
2023-03-23T15:15:48.641Z,7.38
2023-03-23T15:18:32.227Z,6.93
2023-03-23T15:20:59.237Z,7.10
2023-03-23T15:23:30.519Z,8.70
2023-03-23T15:26:08.873Z,6.88
2023-03-23T15:28:41.559Z,7.13
2023-03-23T15:31:08.523Z,9.57
2023-03-23T15:33:38.703Z,10.55
2023-03-23T15:36:16.579Z,7.35
2023-03-23T15:38:48.241Z,5.85
2023-03-23T15:41:26.913Z,5.25
2023-03-23T15:43:59.781Z,8.90
2023-03-23T15:46:28.973Z,7.38
2023-03-23T15:48:58.976Z,8.82
2023-03-23T15:51:28.581Z,4.47
2023-03-23T15:54:00.094Z,7.65
2023-03-23T15:56:27.468Z,5.93
2023-03-23T15:58:54.831Z,4.80
2023-03-23T16:01:25.547Z,5.25
2023-03-23T16:04:01.992Z,5.32
2023-03-23T16:06:32.121Z,6.15
2023-03-23T16:08:59.732Z,6.33
2023-03-23T16:11:30.034Z,6.13
2023-03-23T16:13:58.488Z,5.82
2023-03-23T16:16:32.282Z,4.97
2023-03-23T16:18:59.605Z,5.93
2023-03-23T16:21:26.726Z,5.33
2023-03-23T16:23:54.486Z,5.78
2023-03-23T16:26:21.409Z,5.05
2023-03-23T16:28:49.001Z,5.72
2023-03-23T16:31:16.552Z,4.53
2023-03-23T16:33:43.863Z,6.30
2023-03-23T16:36:13.094Z,7.05
2023-03-23T16:38:51.035Z,5.95
2023-03-23T16:41:19.470Z,5.72
2023-03-23T16:43:46.789Z,5.88
2023-03-23T16:46:14.450Z,5.87
2023-03-23T16:48:41.918Z,6.13
2023-03-23T16:51:08.956Z,6.03
2023-03-23T16:53:37.024Z,6.22
2023-03-23T16:56:05.213Z,5.28
2023-03-23T16:58:32.474Z,5.77
2023-03-23T17:01:01.276Z,6.35
2023-03-23T17:03:29.020Z,5.88
2023-03-23T17:05:56.057Z,8.35
2023-03-23T17:08:23.325Z,7.63
2023-03-23T17:10:50.679Z,9.50
2023-03-23T17:13:18.179Z,7.70
2023-03-23T17:15:47.206Z,8.18
2023-03-23T17:18:15.643Z,10.77
2023-03-23T17:20:43.066Z,11.15
2023-03-23T17:23:10.680Z,9.13
2023-03-23T17:25:37.835Z,12.35
2023-03-23T17:28:06.774Z,9.38
2023-03-23T17:30:35.209Z,16.35
2023-03-23T17:33:03.158Z,35.20
2023-03-23T17:35:30.242Z,62.67
2023-03-23T17:37:57.881Z,46.55
2023-03-23T17:40:25.169Z,37.20
2023-03-23T17:42:52.509Z,19.90
2023-03-23T17:45:19.609Z,14.45
2023-03-23T17:47:46.851Z,15.63
2023-03-23T17:50:13.955Z,16.45
2023-03-23T17:52:41.928Z,12.18
2023-03-23T17:55:09.461Z,9.65
2023-03-23T17:57:36.917Z,11.98
2023-03-23T18:00:07.946Z,8.87
2023-03-23T18:02:36.695Z,8.52
2023-03-23T18:05:04.042Z,8.00
2023-03-23T18:07:31.635Z,9.90
2023-03-23T18:09:59.813Z,10.68
2023-03-23T18:12:27.170Z,10.53
2023-03-23T18:14:58.685Z,8.98
2023-03-23T18:17:27.067Z,6.80
2023-03-23T18:19:54.633Z,13.05
2023-03-23T18:22:22.271Z,8.68
2023-03-23T18:24:49.738Z,10.87
2023-03-23T18:27:17.502Z,9.80
2023-03-23T18:29:44.575Z,10.75
2023-03-23T18:32:12.000Z,7.85
2023-03-23T18:34:41.907Z,8.93
2023-03-23T18:37:09.396Z,8.80
2023-03-23T18:39:37.240Z,11.23
2023-03-23T18:42:05.691Z,9.15
2023-03-23T18:44:32.594Z,9.10
2023-03-23T18:47:00.126Z,9.30
2023-03-23T18:49:28.661Z,10.20
2023-03-23T18:51:56.302Z,10.63
2023-03-23T18:54:23.277Z,13.95
2023-03-23T18:56:50.505Z,29.58
2023-03-23T18:59:17.481Z,19.33
2023-03-23T19:01:45.050Z,15.77
2023-03-23T19:04:13.734Z,10.73
2023-03-23T19:06:41.207Z,11.88
2023-03-23T19:09:08.150Z,13.48
2023-03-23T19:11:35.418Z,10.98
2023-03-23T19:14:03.617Z,10.20
2023-03-23T19:16:32.989Z,8.93
2023-03-23T19:19:01.999Z,6.47
2023-03-23T19:21:32.004Z,7.68
2023-03-23T19:24:00.763Z,7.25
2023-03-23T19:26:38.333Z,5.50
2023-03-23T19:31:38.498Z,6.55
2023-03-23T19:34:06.255Z,6.60
2023-03-23T19:36:33.665Z,8.13
2023-03-23T19:39:03.015Z,6.30
2023-03-23T19:41:31.724Z,9.13
2023-03-23T19:43:59.497Z,7.07
2023-03-23T19:46:30.245Z,6.60
2023-03-23T19:48:58.439Z,8.52
2023-03-23T19:51:26.770Z,8.10
2023-03-23T19:53:57.316Z,9.00
2023-03-23T19:56:25.459Z,7.28
2023-03-23T19:58:52.673Z,7.70
2023-03-23T20:01:20.265Z,6.35
2023-03-23T20:03:47.714Z,6.57
2023-03-23T20:06:15.880Z,7.03
2023-03-23T20:08:45.463Z,6.95
2023-03-23T20:11:17.389Z,6.10
2023-03-23T20:13:46.130Z,7.57
2023-03-23T20:16:13.512Z,8.47
2023-03-23T20:18:41.066Z,6.20
2023-03-23T20:21:11.111Z,5.93
2023-03-23T20:23:39.335Z,6.80
2023-03-23T20:26:15.125Z,5.88
2023-03-23T20:28:42.917Z,5.30
2023-03-23T20:31:24.304Z,6.55
2023-03-23T20:34:00.765Z,5.32
2023-03-23T20:36:35.178Z,5.68
2023-03-23T20:39:12.066Z,5.55
2023-03-23T20:41:40.528Z,8.07
2023-03-23T20:44:14.262Z,6.43
2023-03-23T20:46:46.843Z,7.30
2023-03-23T20:49:16.037Z,6.63
2023-03-23T20:51:45.006Z,6.18
2023-03-23T20:54:16.079Z,5.70
2023-03-23T20:56:44.844Z,6.63
2023-03-23T20:59:12.508Z,4.90
2023-03-23T21:01:40.120Z,4.80
2023-03-23T21:04:15.147Z,4.60
2023-03-23T21:06:43.940Z,4.50
2023-03-23T21:09:13.576Z,6.13
2023-03-23T21:11:42.168Z,4.75
2023-03-23T21:14:09.814Z,4.78
2023-03-23T21:16:37.632Z,5.35
2023-03-23T21:19:05.731Z,6.27
2023-03-23T21:21:34.346Z,7.70
2023-03-23T21:24:01.939Z,6.22
2023-03-23T21:26:30.571Z,5.65
2023-03-23T21:29:00.753Z,6.10
2023-03-23T21:31:33.397Z,5.50
2023-03-23T21:34:01.140Z,5.47
2023-03-23T21:36:29.536Z,5.60
2023-03-23T21:38:57.275Z,6.22
2023-03-23T21:41:24.938Z,5.13
2023-03-23T21:43:51.941Z,5.40
2023-03-23T21:46:19.536Z,4.88
2023-03-23T21:48:51.716Z,4.95
2023-03-23T21:51:25.559Z,5.82
2023-03-23T21:53:54.518Z,4.75
2023-03-23T21:56:23.967Z,5.97
2023-03-23T21:58:51.902Z,4.55
2023-03-23T22:01:20.085Z,4.90
2023-03-23T22:03:47.562Z,5.47
2023-03-23T22:06:19.033Z,4.75
2023-03-23T22:08:47.275Z,6.37
2023-03-23T22:11:20.876Z,5.00
2023-03-23T22:13:51.064Z,5.20
2023-03-23T22:16:19.744Z,5.78
2023-03-23T22:18:48.222Z,7.22
2023-03-23T22:21:17.091Z,9.67
2023-03-23T22:23:45.641Z,9.25
2023-03-23T22:26:14.127Z,8.57
2023-03-23T22:28:41.627Z,8.88
2023-03-23T22:31:13.761Z,7.05
2023-03-23T22:33:41.011Z,5.87
2023-03-23T22:36:08.848Z,6.63
2023-03-23T22:38:37.443Z,6.65
2023-03-23T22:41:07.269Z,5.32
2023-03-23T22:43:36.178Z,6.47
2023-03-23T22:46:05.290Z,5.83
2023-03-23T22:48:32.788Z,5.10
2023-03-23T22:51:00.462Z,5.25
2023-03-23T22:53:27.501Z,5.85
2023-03-23T22:55:56.502Z,6.05
2023-03-23T22:58:25.244Z,5.20
2023-03-23T23:01:01.673Z,6.18
2023-03-23T23:03:30.169Z,6.30
2023-03-23T23:05:59.221Z,6.70
2023-03-23T23:08:28.611Z,5.93
2023-03-23T23:10:58.356Z,6.37
2023-03-23T23:13:26.102Z,7.90
2023-03-23T23:15:56.648Z,7.35
2023-03-23T23:18:25.151Z,6.82
2023-03-23T23:20:55.635Z,5.70
2023-03-23T23:23:24.306Z,6.13
2023-03-23T23:25:52.372Z,6.20
2023-03-23T23:28:20.504Z,6.97
2023-03-23T23:30:48.536Z,5.45
2023-03-23T23:33:15.852Z,6.30
2023-03-23T23:35:43.214Z,7.80
2023-03-23T23:38:12.749Z,8.27
2023-03-23T23:40:41.480Z,8.55
2023-03-23T23:43:11.048Z,9.18
2023-03-23T23:45:38.760Z,9.82
2023-03-23T23:48:06.291Z,8.47
2023-03-23T23:50:34.108Z,8.27
2023-03-23T23:53:01.132Z,10.10
2023-03-23T23:55:28.638Z,10.05
2023-03-23T23:57:56.230Z,9.23
